sensor_id;sensor_type;location;lat;lon;timestamp;P1;durP1;ratioP1;P2;durP2;ratioP2
26951;SDS011;14507;52.418;13.398;2023-11-19T00:01:55;15.00;;;8.55;;
26951;SDS011;14507;52.418;13.398;2023-11-19T00:04:22;13.88;;;8.30;;
26951;SDS011;14507;52.418;13.398;2023-11-19T00:06:47;13.75;;;8.45;;
26951;SDS011;14507;52.418;13.398;2023-11-19T00:09:13;13.55;;;8.63;;
26951;SDS011;14507;52.418;13.398;2023-11-19T00:11:41;14.52;;;9.25;;
26951;SDS011;14507;52.418;13.398;2023-11-19T00:14:07;17.85;;;9.15;;
26951;SDS011;14507;52.418;13.398;2023-11-19T00:16:33;13.27;;;7.93;;
26951;SDS011;14507;52.418;13.398;2023-11-19T00:18:59;15.85;;;8.32;;
26951;SDS011;14507;52.418;13.398;2023-11-19T00:21:25;14.20;;;8.23;;
26951;SDS011;14507;52.418;13.398;2023-11-19T00:26:19;15.82;;;9.10;;
26951;SDS011;14507;52.418;13.398;2023-11-19T00:28:45;13.15;;;8.43;;
26951;SDS011;14507;52.418;13.398;2023-11-19T00:31:13;13.55;;;8.65;;
26951;SDS011;14507;52.418;13.398;2023-11-19T00:33:38;18.77;;;8.77;;
26951;SDS011;14507;52.418;13.398;2023-11-19T00:36:05;13.88;;;8.50;;
26951;SDS011;14507;52.418;13.398;2023-11-19T00:38:31;15.38;;;8.75;;
26951;SDS011;14507;52.418;13.398;2023-11-19T00:40:56;13.30;;;8.10;;
26951;SDS011;14507;52.418;13.398;2023-11-19T00:43:22;16.25;;;8.20;;
26951;SDS011;14507;52.418;13.398;2023-11-19T00:45:48;13.77;;;8.20;;
26951;SDS011;14507;52.418;13.398;2023-11-19T00:48:16;13.55;;;8.48;;
26951;SDS011;14507;52.418;13.398;2023-11-19T00:50:42;16.10;;;8.00;;
26951;SDS011;14507;52.418;13.398;2023-11-19T00:53:10;15.75;;;8.95;;
26951;SDS011;14507;52.418;13.398;2023-11-19T00:55:36;12.93;;;7.70;;
26951;SDS011;14507;52.418;13.398;2023-11-19T00:58:01;12.43;;;7.68;;
26951;SDS011;14507;52.418;13.398;2023-11-19T01:00:28;12.50;;;7.90;;
26951;SDS011;14507;52.418;13.398;2023-11-19T01:02:54;19.38;;;8.23;;
26951;SDS011;14507;52.418;13.398;2023-11-19T01:05:20;12.75;;;7.80;;
26951;SDS011;14507;52.418;13.398;2023-11-19T01:07:49;13.82;;;8.43;;
26951;SDS011;14507;52.418;13.398;2023-11-19T01:10:15;11.23;;;7.90;;
26951;SDS011;14507;52.418;13.398;2023-11-19T01:12:41;13.15;;;7.45;;
26951;SDS011;14507;52.418;13.398;2023-11-19T01:15:07;13.02;;;7.82;;
26951;SDS011;14507;52.418;13.398;2023-11-19T01:17:33;13.00;;;8.02;;
26951;SDS011;14507;52.418;13.398;2023-11-19T01:19:58;12.43;;;7.32;;
26951;SDS011;14507;52.418;13.398;2023-11-19T01:22:24;12.20;;;7.60;;
26951;SDS011;14507;52.418;13.398;2023-11-19T01:24:50;11.20;;;7.50;;
26951;SDS011;14507;52.418;13.398;2023-11-19T01:27:17;12.40;;;7.97;;
26951;SDS011;14507;52.418;13.398;2023-11-19T01:29:42;11.63;;;7.60;;
26951;SDS011;14507;52.418;13.398;2023-11-19T01:32:08;14.02;;;7.57;;
26951;SDS011;14507;52.418;13.398;2023-11-19T01:34:34;14.32;;;7.25;;
26951;SDS011;14507;52.418;13.398;2023-11-19T01:37:00;14.75;;;7.57;;
26951;SDS011;14507;52.418;13.398;2023-11-19T01:39:26;18.23;;;7.82;;
26951;SDS011;14507;52.418;13.398;2023-11-19T01:41:52;12.27;;;7.75;;
26951;SDS011;14507;52.418;13.398;2023-11-19T01:44:19;12.50;;;7.77;;
26951;SDS011;14507;52.418;13.398;2023-11-19T01:46:45;11.25;;;7.57;;
26951;SDS011;14507;52.418;13.398;2023-11-19T01:49:15;12.27;;;7.63;;
26951;SDS011;14507;52.418;13.398;2023-11-19T01:51:42;13.32;;;7.65;;
26951;SDS011;14507;52.418;13.398;2023-11-19T01:54:08;12.20;;;7.40;;
26951;SDS011;14507;52.418;13.398;2023-11-19T01:56:35;13.82;;;7.22;;
26951;SDS011;14507;52.418;13.398;2023-11-19T01:59:02;12.50;;;7.22;;
26951;SDS011;14507;52.418;13.398;2023-11-19T02:01:28;12.85;;;7.95;;
26951;SDS011;14507;52.418;13.398;2023-11-19T02:03:54;13.60;;;7.63;;
26951;SDS011;14507;52.418;13.398;2023-11-19T02:06:20;15.10;;;7.10;;
26951;SDS011;14507;52.418;13.398;2023-11-19T02:08:46;11.82;;;7.50;;
26951;SDS011;14507;52.418;13.398;2023-11-19T02:11:12;13.05;;;7.25;;
26951;SDS011;14507;52.418;13.398;2023-11-19T02:13:37;10.98;;;7.25;;
26951;SDS011;14507;52.418;13.398;2023-11-19T02:16:04;11.98;;;7.30;;
26951;SDS011;14507;52.418;13.398;2023-11-19T02:18:30;13.00;;;7.18;;
26951;SDS011;14507;52.418;13.398;2023-11-19T02:20:56;12.88;;;7.53;;
26951;SDS011;14507;52.418;13.398;2023-11-19T02:23:22;15.07;;;8.00;;
26951;SDS011;14507;52.418;13.398;2023-11-19T02:26:36;12.93;;;8.07;;
26951;SDS011;14507;52.418;13.398;2023-11-19T02:28:43;14.65;;;7.63;;
26951;SDS011;14507;52.418;13.398;2023-11-19T02:31:09;12.57;;;6.95;;
26951;SDS011;14507;52.418;13.398;2023-11-19T02:33:36;10.23;;;6.68;;
26951;SDS011;14507;52.418;13.398;2023-11-19T02:36:03;13.13;;;8.32;;
26951;SDS011;14507;52.418;13.398;2023-11-19T02:38:35;11.25;;;7.10;;
26951;SDS011;14507;52.418;13.398;2023-11-19T02:41:03;11.07;;;7.10;;
26951;SDS011;14507;52.418;13.398;2023-11-19T02:43:30;9.63;;;6.40;;
26951;SDS011;14507;52.418;13.398;2023-11-19T02:45:58;14.23;;;7.20;;
26951;SDS011;14507;52.418;13.398;2023-11-19T02:48:36;13.48;;;7.57;;
26951;SDS011;14507;52.418;13.398;2023-11-19T02:51:02;11.02;;;6.90;;
26951;SDS011;14507;52.418;13.398;2023-11-19T02:53:29;13.25;;;6.65;;
26951;SDS011;14507;52.418;13.398;2023-11-19T02:55:56;12.70;;;6.78;;
26951;SDS011;14507;52.418;13.398;2023-11-19T02:58:31;10.48;;;6.32;;
26951;SDS011;14507;52.418;13.398;2023-11-19T03:00:57;12.35;;;6.10;;
26951;SDS011;14507;52.418;13.398;2023-11-19T03:03:26;9.77;;;6.10;;
26951;SDS011;14507;52.418;13.398;2023-11-19T03:06:06;9.32;;;5.75;;
26951;SDS011;14507;52.418;13.398;2023-11-19T03:08:35;9.73;;;6.65;;
26951;SDS011;14507;52.418;13.398;2023-11-19T03:11:01;12.60;;;6.45;;
26951;SDS011;14507;52.418;13.398;2023-11-19T03:13:27;11.50;;;6.10;;
26951;SDS011;14507;52.418;13.398;2023-11-19T03:15:52;9.77;;;6.03;;
26951;SDS011;14507;52.418;13.398;2023-11-19T03:18:19;9.40;;;6.25;;
26951;SDS011;14507;52.418;13.398;2023-11-19T03:20:46;13.02;;;6.20;;
26951;SDS011;14507;52.418;13.398;2023-11-19T03:23:12;9.10;;;5.93;;
26951;SDS011;14507;52.418;13.398;2023-11-19T03:25:37;11.43;;;5.72;;
26951;SDS011;14507;52.418;13.398;2023-11-19T03:28:03;9.52;;;5.72;;
26951;SDS011;14507;52.418;13.398;2023-11-19T03:30:29;13.27;;;5.85;;
26951;SDS011;14507;52.418;13.398;2023-11-19T03:32:56;9.65;;;5.82;;
26951;SDS011;14507;52.418;13.398;2023-11-19T03:35:22;10.02;;;6.20;;
26951;SDS011;14507;52.418;13.398;2023-11-19T03:37:49;11.30;;;6.00;;
26951;SDS011;14507;52.418;13.398;2023-11-19T03:40:15;10.40;;;6.45;;
26951;SDS011;14507;52.418;13.398;2023-11-19T03:42:41;11.98;;;5.80;;
26951;SDS011;14507;52.418;13.398;2023-11-19T03:45:07;11.70;;;6.00;;
26951;SDS011;14507;52.418;13.398;2023-11-19T03:47:36;10.55;;;6.00;;
26951;SDS011;14507;52.418;13.398;2023-11-19T03:50:01;11.00;;;6.80;;
26951;SDS011;14507;52.418;13.398;2023-11-19T03:52:28;15.82;;;6.95;;
26951;SDS011;14507;52.418;13.398;2023-11-19T03:54:54;10.07;;;6.43;;
26951;SDS011;14507;52.418;13.398;2023-11-19T03:57:23;10.68;;;6.63;;
26951;SDS011;14507;52.418;13.398;2023-11-19T03:59:49;11.73;;;6.88;;
26951;SDS011;14507;52.418;13.398;2023-11-19T04:02:15;12.55;;;7.22;;
26951;SDS011;14507;52.418;13.398;2023-11-19T04:04:41;11.90;;;7.07;;
26951;SDS011;14507;52.418;13.398;2023-11-19T04:07:07;11.05;;;6.90;;
26951;SDS011;14507;52.418;13.398;2023-11-19T04:09:33;12.25;;;7.00;;
26951;SDS011;14507;52.418;13.398;2023-11-19T04:11:59;11.52;;;7.03;;
26951;SDS011;14507;52.418;13.398;2023-11-19T04:14:25;12.80;;;7.00;;
26951;SDS011;14507;52.418;13.398;2023-11-19T04:16:51;13.50;;;7.43;;
26951;SDS011;14507;52.418;13.398;2023-11-19T04:19:20;13.38;;;7.35;;
26951;SDS011;14507;52.418;13.398;2023-11-19T04:21:46;12.02;;;7.20;;
26951;SDS011;14507;52.418;13.398;2023-11-19T04:24:12;12.40;;;6.90;;
26951;SDS011;14507;52.418;13.398;2023-11-19T04:26:42;13.00;;;7.20;;
26951;SDS011;14507;52.418;13.398;2023-11-19T04:29:11;12.18;;;6.97;;
26951;SDS011;14507;52.418;13.398;2023-11-19T04:31:41;10.18;;;6.95;;
26951;SDS011;14507;52.418;13.398;2023-11-19T04:34:08;11.43;;;6.93;;
26951;SDS011;14507;52.418;13.398;2023-11-19T04:36:33;12.50;;;7.30;;
26951;SDS011;14507;52.418;13.398;2023-11-19T04:38:59;12.80;;;7.25;;
26951;SDS011;14507;52.418;13.398;2023-11-19T04:41:26;13.38;;;8.15;;
26951;SDS011;14507;52.418;13.398;2023-11-19T04:43:55;11.23;;;7.18;;
26951;SDS011;14507;52.418;13.398;2023-11-19T04:46:20;20.27;;;8.50;;
26951;SDS011;14507;52.418;13.398;2023-11-19T04:48:46;13.60;;;8.32;;
26951;SDS011;14507;52.418;13.398;2023-11-19T04:51:12;13.27;;;8.55;;
26951;SDS011;14507;52.418;13.398;2023-11-19T04:53:37;13.82;;;8.65;;
26951;SDS011;14507;52.418;13.398;2023-11-19T04:56:07;14.00;;;8.40;;
26951;SDS011;14507;52.418;13.398;2023-11-19T04:58:36;15.77;;;8.00;;
26951;SDS011;14507;52.418;13.398;2023-11-19T05:01:03;12.88;;;8.23;;
26951;SDS011;14507;52.418;13.398;2023-11-19T05:03:29;13.73;;;7.60;;
26951;SDS011;14507;52.418;13.398;2023-11-19T05:05:56;14.00;;;8.75;;
26951;SDS011;14507;52.418;13.398;2023-11-19T05:08:22;15.98;;;8.50;;
26951;SDS011;14507;52.418;13.398;2023-11-19T05:10:48;13.60;;;8.20;;
26951;SDS011;14507;52.418;13.398;2023-11-19T05:13:13;13.48;;;8.25;;
26951;SDS011;14507;52.418;13.398;2023-11-19T05:15:40;12.80;;;8.25;;
26951;SDS011;14507;52.418;13.398;2023-11-19T05:18:05;13.13;;;8.05;;
26951;SDS011;14507;52.418;13.398;2023-11-19T05:20:31;12.95;;;8.25;;
26951;SDS011;14507;52.418;13.398;2023-11-19T05:22:57;14.48;;;8.73;;
26951;SDS011;14507;52.418;13.398;2023-11-19T05:25:25;13.48;;;7.82;;
26951;SDS011;14507;52.418;13.398;2023-11-19T05:27:51;14.43;;;8.63;;
26951;SDS011;14507;52.418;13.398;2023-11-19T05:30:17;12.40;;;8.20;;
26951;SDS011;14507;52.418;13.398;2023-11-19T05:32:43;13.07;;;7.95;;
26951;SDS011;14507;52.418;13.398;2023-11-19T05:35:09;12.15;;;8.25;;
26951;SDS011;14507;52.418;13.398;2023-11-19T05:37:37;11.50;;;7.38;;
26951;SDS011;14507;52.418;13.398;2023-11-19T05:40:03;12.88;;;8.55;;
26951;SDS011;14507;52.418;13.398;2023-11-19T05:42:31;12.88;;;8.40;;
26951;SDS011;14507;52.418;13.398;2023-11-19T05:44:57;11.90;;;7.93;;
26951;SDS011;14507;52.418;13.398;2023-11-19T05:47:23;15.60;;;8.65;;
26951;SDS011;14507;52.418;13.398;2023-11-19T05:49:48;13.93;;;8.43;;
26951;SDS011;14507;52.418;13.398;2023-11-19T05:52:14;12.25;;;8.20;;
26951;SDS011;14507;52.418;13.398;2023-11-19T05:54:39;13.43;;;8.63;;
26951;SDS011;14507;52.418;13.398;2023-11-19T05:57:05;13.70;;;8.80;;
26951;SDS011;14507;52.418;13.398;2023-11-19T05:59:34;12.50;;;8.07;;
26951;SDS011;14507;52.418;13.398;2023-11-19T06:02:01;12.38;;;8.27;;
26951;SDS011;14507;52.418;13.398;2023-11-19T06:04:27;13.73;;;8.32;;
26951;SDS011;14507;52.418;13.398;2023-11-19T06:06:53;14.75;;;8.52;;
26951;SDS011;14507;52.418;13.398;2023-11-19T06:09:20;12.43;;;8.18;;
26951;SDS011;14507;52.418;13.398;2023-11-19T06:11:48;12.82;;;8.63;;
26951;SDS011;14507;52.418;13.398;2023-11-19T06:14:14;13.38;;;8.05;;
26951;SDS011;14507;52.418;13.398;2023-11-19T06:16:39;14.40;;;8.32;;
26951;SDS011;14507;52.418;13.398;2023-11-19T06:19:05;13.65;;;8.23;;
26951;SDS011;14507;52.418;13.398;2023-11-19T06:21:31;13.75;;;8.20;;
26951;SDS011;14507;52.418;13.398;2023-11-19T06:23:56;14.75;;;9.13;;
26951;SDS011;14507;52.418;13.398;2023-11-19T06:26:23;13.60;;;8.23;;
26951;SDS011;14507;52.418;13.398;2023-11-19T06:28:49;11.30;;;7.60;;
26951;SDS011;14507;52.418;13.398;2023-11-19T06:31:14;15.63;;;8.02;;
26951;SDS011;14507;52.418;13.398;2023-11-19T06:33:41;11.38;;;7.85;;
26951;SDS011;14507;52.418;13.398;2023-11-19T06:36:07;13.52;;;8.10;;
26951;SDS011;14507;52.418;13.398;2023-11-19T06:38:34;12.40;;;8.63;;
26951;SDS011;14507;52.418;13.398;2023-11-19T06:41:00;12.93;;;8.45;;
26951;SDS011;14507;52.418;13.398;2023-11-19T06:43:26;13.20;;;7.35;;
26951;SDS011;14507;52.418;13.398;2023-11-19T06:45:53;12.40;;;7.88;;
26951;SDS011;14507;52.418;13.398;2023-11-19T06:48:18;14.60;;;9.40;;
26951;SDS011;14507;52.418;13.398;2023-11-19T06:50:44;11.73;;;8.02;;
26951;SDS011;14507;52.418;13.398;2023-11-19T06:53:10;12.43;;;9.05;;
26951;SDS011;14507;52.418;13.398;2023-11-19T06:55:35;12.18;;;8.88;;
26951;SDS011;14507;52.418;13.398;2023-11-19T06:58:01;15.32;;;8.25;;
26951;SDS011;14507;52.418;13.398;2023-11-19T07:00:28;13.27;;;7.97;;
26951;SDS011;14507;52.418;13.398;2023-11-19T07:02:54;11.43;;;7.70;;
26951;SDS011;14507;52.418;13.398;2023-11-19T07:05:20;11.98;;;7.75;;
26951;SDS011;14507;52.418;13.398;2023-11-19T07:07:46;11.20;;;7.40;;
26951;SDS011;14507;52.418;13.398;2023-11-19T07:10:11;13.23;;;7.35;;
26951;SDS011;14507;52.418;13.398;2023-11-19T07:12:37;13.15;;;7.75;;
26951;SDS011;14507;52.418;13.398;2023-11-19T07:15:03;11.65;;;7.43;;
26951;SDS011;14507;52.418;13.398;2023-11-19T07:17:30;10.23;;;6.95;;
26951;SDS011;14507;52.418;13.398;2023-11-19T07:19:56;11.48;;;7.75;;
26951;SDS011;14507;52.418;13.398;2023-11-19T07:22:24;12.13;;;7.38;;
26951;SDS011;14507;52.418;13.398;2023-11-19T07:24:50;11.98;;;7.25;;
26951;SDS011;14507;52.418;13.398;2023-11-19T07:27:18;9.33;;;6.73;;
26951;SDS011;14507;52.418;13.398;2023-11-19T07:29:43;12.07;;;7.07;;
26951;SDS011;14507;52.418;13.398;2023-11-19T07:32:10;9.70;;;6.68;;
26951;SDS011;14507;52.418;13.398;2023-11-19T07:34:36;9.98;;;6.93;;
26951;SDS011;14507;52.418;13.398;2023-11-19T07:37:01;8.60;;;5.90;;
26951;SDS011;14507;52.418;13.398;2023-11-19T07:39:31;12.15;;;6.93;;
26951;SDS011;14507;52.418;13.398;2023-11-19T07:41:56;11.07;;;7.20;;
26951;SDS011;14507;52.418;13.398;2023-11-19T07:44:22;10.55;;;6.70;;
26951;SDS011;14507;52.418;13.398;2023-11-19T07:46:48;10.73;;;7.07;;
26951;SDS011;14507;52.418;13.398;2023-11-19T07:49:14;10.07;;;6.53;;
26951;SDS011;14507;52.418;13.398;2023-11-19T07:51:40;9.60;;;6.00;;
26951;SDS011;14507;52.418;13.398;2023-11-19T07:54:06;9.38;;;6.45;;
26951;SDS011;14507;52.418;13.398;2023-11-19T07:56:32;9.93;;;5.97;;
26951;SDS011;14507;52.418;13.398;2023-11-19T07:59:00;9.10;;;5.82;;
26951;SDS011;14507;52.418;13.398;2023-11-19T08:01:26;9.55;;;6.05;;
26951;SDS011;14507;52.418;13.398;2023-11-19T08:03:52;9.27;;;6.45;;
26951;SDS011;14507;52.418;13.398;2023-11-19T08:06:17;9.27;;;6.40;;
26951;SDS011;14507;52.418;13.398;2023-11-19T08:08:43;11.60;;;6.32;;
26951;SDS011;14507;52.418;13.398;2023-11-19T08:11:10;9.77;;;6.20;;
26951;SDS011;14507;52.418;13.398;2023-11-19T08:13:35;9.23;;;5.75;;
26951;SDS011;14507;52.418;13.398;2023-11-19T08:16:01;9.93;;;6.00;;
26951;SDS011;14507;52.418;13.398;2023-11-19T08:18:27;10.23;;;5.90;;
26951;SDS011;14507;52.418;13.398;2023-11-19T08:20:52;9.13;;;5.40;;
26951;SDS011;14507;52.418;13.398;2023-11-19T08:23:18;10.40;;;5.80;;
26951;SDS011;14507;52.418;13.398;2023-11-19T08:25:45;8.10;;;5.15;;
26951;SDS011;14507;52.418;13.398;2023-11-19T08:28:11;8.13;;;5.93;;
26951;SDS011;14507;52.418;13.398;2023-11-19T08:30:37;7.53;;;5.05;;
26951;SDS011;14507;52.418;13.398;2023-11-19T08:33:03;9.35;;;5.68;;
26951;SDS011;14507;52.418;13.398;2023-11-19T08:35:30;7.13;;;5.25;;
26951;SDS011;14507;52.418;13.398;2023-11-19T08:37:56;16.83;;;6.20;;
26951;SDS011;14507;52.418;13.398;2023-11-19T08:40:23;6.75;;;4.80;;
26951;SDS011;14507;52.418;13.398;2023-11-19T08:42:50;8.77;;;4.68;;
26951;SDS011;14507;52.418;13.398;2023-11-19T08:45:16;7.82;;;5.00;;
26951;SDS011;14507;52.418;13.398;2023-11-19T08:47:42;9.05;;;5.50;;
26951;SDS011;14507;52.418;13.398;2023-11-19T08:50:08;8.25;;;5.30;;
26951;SDS011;14507;52.418;13.398;2023-11-19T08:52:34;9.60;;;5.03;;
26951;SDS011;14507;52.418;13.398;2023-11-19T08:55:00;7.88;;;4.90;;
26951;SDS011;14507;52.418;13.398;2023-11-19T08:57:25;9.18;;;5.22;;
26951;SDS011;14507;52.418;13.398;2023-11-19T08:59:51;7.18;;;4.55;;
26951;SDS011;14507;52.418;13.398;2023-11-19T09:02:17;6.28;;;4.53;;
26951;SDS011;14507;52.418;13.398;2023-11-19T09:04:43;7.07;;;4.72;;
26951;SDS011;14507;52.418;13.398;2023-11-19T09:07:09;7.00;;;4.47;;
26951;SDS011;14507;52.418;13.398;2023-11-19T09:09:35;9.02;;;4.45;;
26951;SDS011;14507;52.418;13.398;2023-11-19T09:12:01;6.60;;;4.18;;
26951;SDS011;14507;52.418;13.398;2023-11-19T09:14:28;6.25;;;4.35;;
26951;SDS011;14507;52.418;13.398;2023-11-19T09:16:55;5.93;;;4.38;;
26951;SDS011;14507;52.418;13.398;2023-11-19T09:19:21;7.63;;;4.68;;
26951;SDS011;14507;52.418;13.398;2023-11-19T09:21:47;8.40;;;4.70;;
26951;SDS011;14507;52.418;13.398;2023-11-19T09:24:14;6.53;;;4.45;;
26951;SDS011;14507;52.418;13.398;2023-11-19T09:26:40;6.55;;;4.45;;
26951;SDS011;14507;52.418;13.398;2023-11-19T09:29:07;6.57;;;4.78;;
26951;SDS011;14507;52.418;13.398;2023-11-19T09:31:33;8.98;;;4.70;;
26951;SDS011;14507;52.418;13.398;2023-11-19T09:34:18;8.07;;;4.47;;
26951;SDS011;14507;52.418;13.398;2023-11-19T09:36:46;9.45;;;5.15;;
26951;SDS011;14507;52.418;13.398;2023-11-19T09:39:12;8.40;;;4.22;;
26951;SDS011;14507;52.418;13.398;2023-11-19T09:41:40;7.90;;;4.43;;
26951;SDS011;14507;52.418;13.398;2023-11-19T09:44:06;10.90;;;4.05;;
26951;SDS011;14507;52.418;13.398;2023-11-19T09:46:31;12.07;;;4.45;;
26951;SDS011;14507;52.418;13.398;2023-11-19T09:48:58;12.32;;;4.22;;
26951;SDS011;14507;52.418;13.398;2023-11-19T09:51:24;6.55;;;3.13;;
26951;SDS011;14507;52.418;13.398;2023-11-19T09:53:51;7.13;;;3.22;;
26951;SDS011;14507;52.418;13.398;2023-11-19T09:56:16;10.75;;;3.85;;
26951;SDS011;14507;52.418;13.398;2023-11-19T09:58:43;8.32;;;3.30;;
26951;SDS011;14507;52.418;13.398;2023-11-19T10:01:09;7.93;;;3.22;;
26951;SDS011;14507;52.418;13.398;2023-11-19T10:06:03;9.68;;;3.28;;
26951;SDS011;14507;52.418;13.398;2023-11-19T10:08:29;7.88;;;2.97;;
26951;SDS011;14507;52.418;13.398;2023-11-19T10:10:55;11.10;;;3.28;;
26951;SDS011;14507;52.418;13.398;2023-11-19T10:13:25;8.90;;;3.28;;
26951;SDS011;14507;52.418;13.398;2023-11-19T10:15:52;8.38;;;2.70;;
26951;SDS011;14507;52.418;13.398;2023-11-19T10:18:18;10.80;;;3.00;;
26951;SDS011;14507;52.418;13.398;2023-11-19T10:20:48;8.00;;;2.78;;
26951;SDS011;14507;52.418;13.398;2023-11-19T10:23:14;7.50;;;2.50;;
26951;SDS011;14507;52.418;13.398;2023-11-19T10:25:40;10.50;;;2.78;;
26951;SDS011;14507;52.418;13.398;2023-11-19T10:28:05;7.78;;;2.45;;
26951;SDS011;14507;52.418;13.398;2023-11-19T10:30:31;7.75;;;2.13;;
26951;SDS011;14507;52.418;13.398;2023-11-19T10:33:08;8.02;;;2.47;;
26951;SDS011;14507;52.418;13.398;2023-11-19T10:35:57;15.02;;;3.03;;
26951;SDS011;14507;52.418;13.398;2023-11-19T10:38:23;9.60;;;2.47;;
26951;SDS011;14507;52.418;13.398;2023-11-19T10:40:53;8.77;;;2.90;;
26951;SDS011;14507;52.418;13.398;2023-11-19T10:43:20;7.40;;;2.25;;
26951;SDS011;14507;52.418;13.398;2023-11-19T10:45:48;7.22;;;2.40;;
26951;SDS011;14507;52.418;13.398;2023-11-19T10:48:14;8.07;;;2.28;;
26951;SDS011;14507;52.418;13.398;2023-11-19T10:50:40;11.20;;;2.58;;
26951;SDS011;14507;52.418;13.398;2023-11-19T10:53:07;11.30;;;2.77;;
26951;SDS011;14507;52.418;13.398;2023-11-19T10:55:35;12.98;;;2.40;;
26951;SDS011;14507;52.418;13.398;2023-11-19T10:58:07;10.52;;;2.63;;
26951;SDS011;14507;52.418;13.398;2023-11-19T11:03:24;12.57;;;2.55;;
26951;SDS011;14507;52.418;13.398;2023-11-19T11:05:53;15.93;;;2.58;;
26951;SDS011;14507;52.418;13.398;2023-11-19T11:08:19;9.88;;;2.65;;
26951;SDS011;14507;52.418;13.398;2023-11-19T11:10:48;14.85;;;2.85;;
26951;SDS011;14507;52.418;13.398;2023-11-19T11:13:21;18.02;;;2.72;;
26951;SDS011;14507;52.418;13.398;2023-11-19T11:15:49;11.10;;;2.80;;
26951;SDS011;14507;52.418;13.398;2023-11-19T11:18:16;12.45;;;2.60;;
26951;SDS011;14507;52.418;13.398;2023-11-19T11:20:44;11.53;;;2.73;;
26951;SDS011;14507;52.418;13.398;2023-11-19T11:26:14;16.27;;;2.85;;
26951;SDS011;14507;52.418;13.398;2023-11-19T11:37:46;20.65;;;3.22;;
26951;SDS011;14507;52.418;13.398;2023-11-19T11:40:16;13.68;;;3.50;;
26951;SDS011;14507;52.418;13.398;2023-11-19T11:42:43;14.88;;;3.10;;
26951;SDS011;14507;52.418;13.398;2023-11-19T11:45:10;22.35;;;4.15;;
26951;SDS011;14507;52.418;13.398;2023-11-19T11:50:09;21.45;;;3.83;;
26951;SDS011;14507;52.418;13.398;2023-11-19T11:57:59;14.88;;;4.00;;
26951;SDS011;14507;52.418;13.398;2023-11-19T12:03:01;16.65;;;3.55;;
26951;SDS011;14507;52.418;13.398;2023-11-19T12:05:27;18.20;;;3.60;;
26951;SDS011;14507;52.418;13.398;2023-11-19T12:08:03;21.10;;;4.85;;
26951;SDS011;14507;52.418;13.398;2023-11-19T12:10:32;21.55;;;3.58;;
26951;SDS011;14507;52.418;13.398;2023-11-19T12:13:02;19.45;;;3.35;;
26951;SDS011;14507;52.418;13.398;2023-11-19T12:15:32;24.10;;;4.13;;
26951;SDS011;14507;52.418;13.398;2023-11-19T12:17:58;19.60;;;2.78;;
26951;SDS011;14507;52.418;13.398;2023-11-19T12:20:24;22.52;;;3.97;;
26951;SDS011;14507;52.418;13.398;2023-11-19T12:22:51;16.87;;;3.43;;
26951;SDS011;14507;52.418;13.398;2023-11-19T12:25:18;24.35;;;4.00;;
26951;SDS011;14507;52.418;13.398;2023-11-19T12:27:47;20.90;;;3.67;;
26951;SDS011;14507;52.418;13.398;2023-11-19T12:30:22;21.55;;;3.55;;
26951;SDS011;14507;52.418;13.398;2023-11-19T12:32:54;19.17;;;3.80;;
26951;SDS011;14507;52.418;13.398;2023-11-19T12:35:20;23.13;;;3.95;;
26951;SDS011;14507;52.418;13.398;2023-11-19T12:37:52;23.77;;;4.15;;
26951;SDS011;14507;52.418;13.398;2023-11-19T12:40:19;25.55;;;4.15;;
26951;SDS011;14507;52.418;13.398;2023-11-19T12:42:49;20.55;;;3.88;;
26951;SDS011;14507;52.418;13.398;2023-11-19T12:45:19;25.98;;;4.30;;
26951;SDS011;14507;52.418;13.398;2023-11-19T12:47:46;21.70;;;4.07;;
26951;SDS011;14507;52.418;13.398;2023-11-19T12:50:13;23.77;;;4.13;;
26951;SDS011;14507;52.418;13.398;2023-11-19T12:52:40;27.38;;;4.63;;
26951;SDS011;14507;52.418;13.398;2023-11-19T12:55:25;26.77;;;3.72;;
26951;SDS011;14507;52.418;13.398;2023-11-19T12:57:52;24.75;;;4.40;;
26951;SDS011;14507;52.418;13.398;2023-11-19T13:00:20;28.50;;;5.47;;
26951;SDS011;14507;52.418;13.398;2023-11-19T13:02:47;22.90;;;4.63;;
26951;SDS011;14507;52.418;13.398;2023-11-19T13:05:38;24.33;;;4.78;;
26951;SDS011;14507;52.418;13.398;2023-11-19T13:08:04;20.80;;;3.80;;
26951;SDS011;14507;52.418;13.398;2023-11-19T13:10:30;21.17;;;3.53;;
26951;SDS011;14507;52.418;13.398;2023-11-19T13:13:07;22.58;;;4.78;;
26951;SDS011;14507;52.418;13.398;2023-11-19T13:15:33;24.13;;;4.38;;
26951;SDS011;14507;52.418;13.398;2023-11-19T13:18:00;16.15;;;3.88;;
26951;SDS011;14507;52.418;13.398;2023-11-19T13:20:26;27.98;;;4.45;;
26951;SDS011;14507;52.418;13.398;2023-11-19T13:22:56;23.08;;;3.88;;
26951;SDS011;14507;52.418;13.398;2023-11-19T13:25:22;26.77;;;4.22;;
26951;SDS011;14507;52.418;13.398;2023-11-19T13:27:48;27.08;;;4.30;;
26951;SDS011;14507;52.418;13.398;2023-11-19T13:30:14;27.75;;;4.20;;
26951;SDS011;14507;52.418;13.398;2023-11-19T13:32:40;24.90;;;5.03;;
26951;SDS011;14507;52.418;13.398;2023-11-19T13:35:05;29.52;;;4.90;;
26951;SDS011;14507;52.418;13.398;2023-11-19T13:37:33;27.77;;;4.78;;
26951;SDS011;14507;52.418;13.398;2023-11-19T13:39:59;22.15;;;4.55;;
26951;SDS011;14507;52.418;13.398;2023-11-19T13:42:25;26.88;;;4.22;;
26951;SDS011;14507;52.418;13.398;2023-11-19T13:44:50;27.77;;;4.47;;
26951;SDS011;14507;52.418;13.398;2023-11-19T13:47:16;27.23;;;4.35;;
26951;SDS011;14507;52.418;13.398;2023-11-19T13:49:44;31.95;;;4.97;;
26951;SDS011;14507;52.418;13.398;2023-11-19T13:52:10;22.60;;;5.35;;
26951;SDS011;14507;52.418;13.398;2023-11-19T13:54:36;27.70;;;4.90;;
26951;SDS011;14507;52.418;13.398;2023-11-19T13:57:02;25.58;;;5.22;;
26951;SDS011;14507;52.418;13.398;2023-11-19T13:59:29;25.75;;;5.57;;
26951;SDS011;14507;52.418;13.398;2023-11-19T14:01:58;24.05;;;6.65;;
26951;SDS011;14507;52.418;13.398;2023-11-19T14:04:23;22.20;;;6.00;;
26951;SDS011;14507;52.418;13.398;2023-11-19T14:06:50;30.17;;;6.82;;
26951;SDS011;14507;52.418;13.398;2023-11-19T14:09:16;33.40;;;6.93;;
26951;SDS011;14507;52.418;13.398;2023-11-19T14:11:42;27.70;;;6.38;;
26951;SDS011;14507;52.418;13.398;2023-11-19T14:14:08;33.28;;;6.32;;
26951;SDS011;14507;52.418;13.398;2023-11-19T14:16:34;36.72;;;5.90;;
26951;SDS011;14507;52.418;13.398;2023-11-19T14:19:00;32.55;;;5.20;;
26951;SDS011;14507;52.418;13.398;2023-11-19T14:21:25;27.60;;;4.40;;
26951;SDS011;14507;52.418;13.398;2023-11-19T14:23:51;25.17;;;5.03;;
26951;SDS011;14507;52.418;13.398;2023-11-19T14:26:17;29.70;;;5.15;;
26951;SDS011;14507;52.418;13.398;2023-11-19T14:28:43;38.05;;;4.93;;
26951;SDS011;14507;52.418;13.398;2023-11-19T14:31:09;33.22;;;5.82;;
26951;SDS011;14507;52.418;13.398;2023-11-19T14:33:35;29.15;;;4.40;;
26951;SDS011;14507;52.418;13.398;2023-11-19T14:36:01;26.20;;;5.03;;
26951;SDS011;14507;52.418;13.398;2023-11-19T14:38:27;27.27;;;4.95;;
26951;SDS011;14507;52.418;13.398;2023-11-19T14:40:53;34.85;;;4.72;;
26951;SDS011;14507;52.418;13.398;2023-11-19T14:43:19;27.85;;;4.18;;
26951;SDS011;14507;52.418;13.398;2023-11-19T14:45:45;35.58;;;5.60;;
26951;SDS011;14507;52.418;13.398;2023-11-19T14:48:11;32.72;;;5.80;;
26951;SDS011;14507;52.418;13.398;2023-11-19T14:50:36;31.23;;;4.63;;
26951;SDS011;14507;52.418;13.398;2023-11-19T14:53:02;28.52;;;4.40;;